sensor_id;sensor_type;location;lat;lon;timestamp;pressure;altitude;pressure_sealevel;temperature
63297;BMP280;49419;51.716;-4.948;2022-08-03T00:01:15;100893.53;;;20.43
63297;BMP280;49419;51.716;-4.948;2022-08-03T00:04:00;100892.69;;;20.44
63297;BMP280;49419;51.716;-4.948;2022-08-03T00:06:28;100879.66;;;20.41
63297;BMP280;49419;51.716;-4.948;2022-08-03T00:08:55;100887.47;;;20.41
63297;BMP280;49419;51.716;-4.948;2022-08-03T00:11:24;100884.88;;;20.44
63297;BMP280;49419;51.716;-4.948;2022-08-03T00:14:04;100877.91;;;20.41
63297;BMP280;49419;51.716;-4.948;2022-08-03T00:16:29;100901.38;;;20.49
63297;BMP280;49419;51.716;-4.948;2022-08-03T00:18:56;100886.59;;;20.45
63297;BMP280;49419;51.716;-4.948;2022-08-03T00:21:25;100889.22;;;20.46
63297;BMP280;49419;51.716;-4.948;2022-08-03T00:23:52;100870.97;;;20.43
63297;BMP280;49419;51.716;-4.948;2022-08-03T00:26:20;100882.25;;;20.45
63297;BMP280;49419;51.716;-4.948;2022-08-03T00:29:06;100878.78;;;20.45
63297;BMP280;49419;51.716;-4.948;2022-08-03T00:31:37;100865.75;;;20.39
63297;BMP280;49419;51.716;-4.948;2022-08-03T00:34:11;100853.59;;;20.35
63297;BMP280;49419;51.716;-4.948;2022-08-03T00:36:45;100853.59;;;20.36
63297;BMP280;49419;51.716;-4.948;2022-08-03T00:39:11;100846.66;;;20.34
63297;BMP280;49419;51.716;-4.948;2022-08-03T00:41:37;100860.53;;;20.33
63297;BMP280;49419;51.716;-4.948;2022-08-03T00:44:09;100852.72;;;20.36
63297;BMP280;49419;51.716;-4.948;2022-08-03T00:46:34;100858.78;;;20.38
63297;BMP280;49419;51.716;-4.948;2022-08-03T00:49:10;100849.25;;;20.37
63297;BMP280;49419;51.716;-4.948;2022-08-03T00:51:37;100841.44;;;20.34
63297;BMP280;49419;51.716;-4.948;2022-08-03T00:54:05;100851.84;;;20.40
63297;BMP280;49419;51.716;-4.948;2022-08-03T00:56:31;100850.97;;;20.38
63297;BMP280;49419;51.716;-4.948;2022-08-03T00:58:58;100844.00;;;20.35
63297;BMP280;49419;51.716;-4.948;2022-08-03T01:01:26;100832.75;;;20.36
63297;BMP280;49419;51.716;-4.948;2022-08-03T01:04:04;100847.50;;;20.37
63297;BMP280;49419;51.716;-4.948;2022-08-03T01:06:49;100845.78;;;20.41
63297;BMP280;49419;51.716;-4.948;2022-08-03T01:14:58;100843.19;;;20.41
63297;BMP280;49419;51.716;-4.948;2022-08-03T01:20:23;100842.28;;;20.34
63297;BMP280;49419;51.716;-4.948;2022-08-03T01:23:02;100825.78;;;20.34
63297;BMP280;49419;51.716;-4.948;2022-08-03T01:25:39;100843.16;;;20.35
63297;BMP280;49419;51.716;-4.948;2022-08-03T01:31:02;100837.06;;;20.33
63297;BMP280;49419;51.716;-4.948;2022-08-03T01:33:39;100827.53;;;20.28
63297;BMP280;49419;51.716;-4.948;2022-08-03T01:36:17;100826.63;;;20.29
63297;BMP280;49419;51.716;-4.948;2022-08-03T01:38:52;100830.16;;;20.33
63297;BMP280;49419;51.716;-4.948;2022-08-03T01:41:29;100835.34;;;20.30
63297;BMP280;49419;51.716;-4.948;2022-08-03T01:43:56;100820.56;;;20.28
63297;BMP280;49419;51.716;-4.948;2022-08-03T01:46:30;100826.66;;;20.27
63297;BMP280;49419;51.716;-4.948;2022-08-03T01:48:56;100817.13;;;20.22
63297;BMP280;49419;51.716;-4.948;2022-08-03T01:51:26;100832.75;;;20.25
63297;BMP280;49419;51.716;-4.948;2022-08-03T01:53:53;100830.13;;;20.23
63297;BMP280;49419;51.716;-4.948;2022-08-03T01:56:23;100824.03;;;20.26
63297;BMP280;49419;51.716;-4.948;2022-08-03T01:58:50;100814.47;;;20.26
63297;BMP280;49419;51.716;-4.948;2022-08-03T02:01:20;100824.94;;;20.25
63297;BMP280;49419;51.716;-4.948;2022-08-03T02:03:50;100816.25;;;20.24
63297;BMP280;49419;51.716;-4.948;2022-08-03T02:06:18;100823.19;;;20.25
63297;BMP280;49419;51.716;-4.948;2022-08-03T02:08:50;100825.78;;;20.25
63297;BMP280;49419;51.716;-4.948;2022-08-03T02:11:16;100830.13;;;20.30
63297;BMP280;49419;51.716;-4.948;2022-08-03T02:13:45;100823.16;;;20.31
63297;BMP280;49419;51.716;-4.948;2022-08-03T02:16:18;100833.63;;;20.34
63297;BMP280;49419;51.716;-4.948;2022-08-03T02:18:50;100825.78;;;20.35
63297;BMP280;49419;51.716;-4.948;2022-08-03T02:21:21;100827.53;;;20.36
63297;BMP280;49419;51.716;-4.948;2022-08-03T02:23:51;100829.25;;;20.37
63297;BMP280;49419;51.716;-4.948;2022-08-03T02:26:19;100818.84;;;20.36
63297;BMP280;49419;51.716;-4.948;2022-08-03T02:28:55;100831.00;;;20.35
63297;BMP280;49419;51.716;-4.948;2022-08-03T02:31:32;100815.34;;;20.28
63297;BMP280;49419;51.716;-4.948;2022-08-03T02:34:05;100811.91;;;20.29
63297;BMP280;49419;51.716;-4.948;2022-08-03T02:36:41;100843.16;;;20.30
63297;BMP280;49419;51.716;-4.948;2022-08-03T02:39:12;100845.78;;;20.29
63297;BMP280;49419;51.716;-4.948;2022-08-03T02:41:44;100844.03;;;20.18
63297;BMP280;49419;51.716;-4.948;2022-08-03T02:44:12;100846.63;;;20.07
63297;BMP280;49419;51.716;-4.948;2022-08-03T02:46:44;100848.38;;;20.02
63297;BMP280;49419;51.716;-4.948;2022-08-03T02:49:15;100850.94;;;19.94
63297;BMP280;49419;51.716;-4.948;2022-08-03T02:51:43;100852.66;;;19.81
63297;BMP280;49419;51.716;-4.948;2022-08-03T02:54:14;100853.44;;;19.76
63297;BMP280;49419;51.716;-4.948;2022-08-03T02:56:45;100856.91;;;19.67
63297;BMP280;49419;51.716;-4.948;2022-08-03T02:59:20;100856.91;;;19.60
63297;BMP280;49419;51.716;-4.948;2022-08-03T03:01:46;100852.50;;;19.49
63297;BMP280;49419;51.716;-4.948;2022-08-03T03:04:13;100856.84;;;19.48
63297;BMP280;49419;51.716;-4.948;2022-08-03T03:06:39;100853.38;;;19.46
63297;BMP280;49419;51.716;-4.948;2022-08-03T03:09:05;100856.81;;;19.41
63297;BMP280;49419;51.716;-4.948;2022-08-03T03:11:33;100867.22;;;19.42
63297;BMP280;49419;51.716;-4.948;2022-08-03T03:14:01;100867.25;;;19.45
63297;BMP280;49419;51.716;-4.948;2022-08-03T03:16:28;100864.63;;;19.39
63297;BMP280;49419;51.716;-4.948;2022-08-03T03:18:54;100860.28;;;19.38
63297;BMP280;49419;51.716;-4.948;2022-08-03T03:21:21;100877.63;;;19.39
63297;BMP280;49419;51.716;-4.948;2022-08-03T03:23:51;100874.13;;;19.37
63297;BMP280;49419;51.716;-4.948;2022-08-03T03:26:22;100865.47;;;19.31
63297;BMP280;49419;51.716;-4.948;2022-08-03T03:28:48;100864.59;;;19.33
63297;BMP280;49419;51.716;-4.948;2022-08-03T03:31:13;100868.91;;;19.32
63297;BMP280;49419;51.716;-4.948;2022-08-03T03:33:45;100876.72;;;19.32
63297;BMP280;49419;51.716;-4.948;2022-08-03T03:36:10;100878.47;;;19.33
63297;BMP280;49419;51.716;-4.948;2022-08-03T03:38:36;100881.03;;;19.28
63297;BMP280;49419;51.716;-4.948;2022-08-03T03:41:04;100877.56;;;19.28
63297;BMP280;49419;51.716;-4.948;2022-08-03T03:43:30;100874.94;;;19.23
63297;BMP280;49419;51.716;-4.948;2022-08-03T03:45:57;100885.31;;;19.19
63297;BMP280;49419;51.716;-4.948;2022-08-03T03:48:24;100882.69;;;19.16
63297;BMP280;49419;51.716;-4.948;2022-08-03T03:50:50;100880.09;;;19.13
63297;BMP280;49419;51.716;-4.948;2022-08-03T03:53:23;100884.41;;;19.08
63297;BMP280;49419;51.716;-4.948;2022-08-03T03:56:01;100891.38;;;19.12
63297;BMP280;49419;51.716;-4.948;2022-08-03T03:58:27;100891.38;;;19.12
63297;BMP280;49419;51.716;-4.948;2022-08-03T04:00:55;100887.03;;;19.09
63297;BMP280;49419;51.716;-4.948;2022-08-03T04:03:22;100890.47;;;19.11
63297;BMP280;49419;51.716;-4.948;2022-08-03T04:05:47;100893.06;;;19.11
63297;BMP280;49419;51.716;-4.948;2022-08-03T04:08:31;100899.16;;;19.10
63297;BMP280;49419;51.716;-4.948;2022-08-03T04:11:20;100893.09;;;19.07
63297;BMP280;49419;51.716;-4.948;2022-08-03T04:16:23;100894.78;;;19.03
63297;BMP280;49419;51.716;-4.948;2022-08-03T04:18:56;100883.50;;;19.00
63297;BMP280;49419;51.716;-4.948;2022-08-03T04:21:24;100879.16;;;19.02
63297;BMP280;49419;51.716;-4.948;2022-08-03T04:23:52;100872.19;;;19.00
63297;BMP280;49419;51.716;-4.948;2022-08-03T04:26:21;100885.22;;;19.01
63297;BMP280;49419;51.716;-4.948;2022-08-03T04:28:59;100869.59;;;18.97
63297;BMP280;49419;51.716;-4.948;2022-08-03T04:31:40;100879.19;;;19.05
63297;BMP280;49419;51.716;-4.948;2022-08-03T04:34:06;100882.63;;;19.01
63297;BMP280;49419;51.716;-4.948;2022-08-03T04:36:48;100875.69;;;19.00
63297;BMP280;49419;51.716;-4.948;2022-08-03T04:39:43;100870.50;;;19.00
63297;BMP280;49419;51.716;-4.948;2022-08-03T04:42:12;100879.19;;;19.05
63297;BMP280;49419;51.716;-4.948;2022-08-03T04:44:41;100885.28;;;19.11
63297;BMP280;49419;51.716;-4.948;2022-08-03T04:47:09;100881.81;;;19.11
63297;BMP280;49419;51.716;-4.948;2022-08-03T04:49:50;100889.66;;;19.15
63297;BMP280;49419;51.716;-4.948;2022-08-03T04:52:32;100882.66;;;19.11
63297;BMP280;49419;51.716;-4.948;2022-08-03T04:55:04;100885.34;;;19.22
63297;BMP280;49419;51.716;-4.948;2022-08-03T04:57:37;100880.13;;;19.20
63297;BMP280;49419;51.716;-4.948;2022-08-03T05:00:03;100887.97;;;19.22
63297;BMP280;49419;51.716;-4.948;2022-08-03T05:02:33;100880.13;;;19.23
63297;BMP280;49419;51.716;-4.948;2022-08-03T05:05:05;100867.97;;;19.15
63297;BMP280;49419;51.716;-4.948;2022-08-03T05:07:31;100887.06;;;19.20
63297;BMP280;49419;51.716;-4.948;2022-08-03T05:10:23;100886.19;;;19.21
63297;BMP280;49419;51.716;-4.948;2022-08-03T05:12:50;100881.88;;;19.23
63297;BMP280;49419;51.716;-4.948;2022-08-03T05:15:19;100890.59;;;19.26
63297;BMP280;49419;51.716;-4.948;2022-08-03T05:18:07;100890.56;;;19.22
63297;BMP280;49419;51.716;-4.948;2022-08-03T05:20:45;100900.94;;;19.20
63297;BMP280;49419;51.716;-4.948;2022-08-03T05:23:11;100905.28;;;19.17
63297;BMP280;49419;51.716;-4.948;2022-08-03T05:25:39;100905.22;;;19.14
63297;BMP280;49419;51.716;-4.948;2022-08-03T05:28:05;100918.25;;;19.15
63297;BMP280;49419;51.716;-4.948;2022-08-03T05:30:35;100913.03;;;19.12
63297;BMP280;49419;51.716;-4.948;2022-08-03T05:33:02;100910.44;;;19.12
63297;BMP280;49419;51.716;-4.948;2022-08-03T05:35:29;100914.84;;;19.22
63297;BMP280;49419;51.716;-4.948;2022-08-03T05:37:54;100930.53;;;19.38
63297;BMP280;49419;51.716;-4.948;2022-08-03T05:40:19;100923.66;;;19.51
63297;BMP280;49419;51.716;-4.948;2022-08-03T05:42:46;100919.38;;;19.63
63297;BMP280;49419;51.716;-4.948;2022-08-03T05:45:17;100922.84;;;19.62
63297;BMP280;49419;51.716;-4.948;2022-08-03T05:47:44;100936.72;;;19.61
63297;BMP280;49419;51.716;-4.948;2022-08-03T05:50:11;100936.72;;;19.55
63297;BMP280;49419;51.716;-4.948;2022-08-03T05:52:39;100939.28;;;19.54
63297;BMP280;49419;51.716;-4.948;2022-08-03T05:55:06;100935.00;;;19.66
63297;BMP280;49419;51.716;-4.948;2022-08-03T05:57:32;100929.03;;;19.83
63297;BMP280;49419;51.716;-4.948;2022-08-03T05:59:58;100937.78;;;20.01
63297;BMP280;49419;51.716;-4.948;2022-08-03T06:02:29;100930.84;;;20.14
63297;BMP280;49419;51.716;-4.948;2022-08-03T06:04:55;100937.84;;;20.28
63297;BMP280;49419;51.716;-4.948;2022-08-03T06:07:20;100939.56;;;20.28
63297;BMP280;49419;51.716;-4.948;2022-08-03T06:09:47;100937.81;;;20.21
63297;BMP280;49419;51.716;-4.948;2022-08-03T06:12:12;100945.63;;;20.16
63297;BMP280;49419;51.716;-4.948;2022-08-03T06:14:38;100947.34;;;20.11
63297;BMP280;49419;51.716;-4.948;2022-08-03T06:17:04;100932.53;;;19.97
63297;BMP280;49419;51.716;-4.948;2022-08-03T06:19:29;100944.69;;;19.89
63297;BMP280;49419;51.716;-4.948;2022-08-03T06:21:56;100952.50;;;19.89
63297;BMP280;49419;51.716;-4.948;2022-08-03T06:24:22;100949.00;;;19.83
63297;BMP280;49419;51.716;-4.948;2022-08-03T06:26:50;100952.41;;;19.76
63297;BMP280;49419;51.716;-4.948;2022-08-03T06:29:24;100949.78;;;19.76
63297;BMP280;49419;51.716;-4.948;2022-08-03T06:31:49;100955.97;;;19.87
63297;BMP280;49419;51.716;-4.948;2022-08-03T06:34:18;100955.16;;;20.04
63297;BMP280;49419;51.716;-4.948;2022-08-03T06:36:43;100952.56;;;20.11
63297;BMP280;49419;51.716;-4.948;2022-08-03T06:39:09;100958.69;;;20.25
63297;BMP280;49419;51.716;-4.948;2022-08-03T06:41:37;100959.56;;;20.33
63297;BMP280;49419;51.716;-4.948;2022-08-03T06:44:02;100947.41;;;20.38
63297;BMP280;49419;51.716;-4.948;2022-08-03T06:46:37;100952.63;;;20.50
63297;BMP280;49419;51.716;-4.948;2022-08-03T06:49:19;100935.25;;;20.55
63297;BMP280;49419;51.716;-4.948;2022-08-03T06:51:54;100950.09;;;20.60
63297;BMP280;49419;51.716;-4.948;2022-08-03T06:54:20;100955.28;;;20.64
63297;BMP280;49419;51.716;-4.948;2022-08-03T06:56:47;100946.63;;;20.65
63297;BMP280;49419;51.716;-4.948;2022-08-03T06:59:13;100954.44;;;20.65
63297;BMP280;49419;51.716;-4.948;2022-08-03T07:01:39;100953.56;;;20.72
63297;BMP280;49419;51.716;-4.948;2022-08-03T07:04:04;100938.78;;;20.68
63297;BMP280;49419;51.716;-4.948;2022-08-03T07:06:31;100952.69;;;20.76
63297;BMP280;49419;51.716;-4.948;2022-08-03T07:08:56;100940.53;;;20.78
63297;BMP280;49419;51.716;-4.948;2022-08-03T07:11:22;100948.34;;;20.84
63297;BMP280;49419;51.716;-4.948;2022-08-03T07:13:50;100938.78;;;20.85
63297;BMP280;49419;51.716;-4.948;2022-08-03T07:16:15;100946.63;;;20.94
63297;BMP280;49419;51.716;-4.948;2022-08-03T07:18:43;100951.84;;;20.94
63297;BMP280;49419;51.716;-4.948;2022-08-03T07:21:10;100942.25;;;20.88
63297;BMP280;49419;51.716;-4.948;2022-08-03T07:23:44;100938.78;;;20.89
63297;BMP280;49419;51.716;-4.948;2022-08-03T07:26:10;100955.31;;;20.98
63297;BMP280;49419;51.716;-4.948;2022-08-03T07:28:35;100967.47;;;21.04
63297;BMP280;49419;51.716;-4.948;2022-08-03T07:31:04;100954.44;;;20.96
63297;BMP280;49419;51.716;-4.948;2022-08-03T07:33:29;100972.69;;;20.96
63297;BMP280;49419;51.716;-4.948;2022-08-03T07:35:55;100976.16;;;20.97
63297;BMP280;49419;51.716;-4.948;2022-08-03T07:38:20;100970.94;;;20.95
63297;BMP280;49419;51.716;-4.948;2022-08-03T07:40:45;100970.94;;;21.04
63297;BMP280;49419;51.716;-4.948;2022-08-03T07:43:11;100974.41;;;21.05
63297;BMP280;49419;51.716;-4.948;2022-08-03T07:45:36;100964.00;;;21.06
63297;BMP280;49419;51.716;-4.948;2022-08-03T07:48:04;100972.69;;;21.11
63297;BMP280;49419;51.716;-4.948;2022-08-03T07:50:39;100975.28;;;21.16
63297;BMP280;49419;51.716;-4.948;2022-08-03T07:53:04;100980.47;;;21.22
63297;BMP280;49419;51.716;-4.948;2022-08-03T07:55:33;100972.69;;;21.20
63297;BMP280;49419;51.716;-4.948;2022-08-03T07:58:07;100981.38;;;21.16
63297;BMP280;49419;51.716;-4.948;2022-08-03T08:00:37;100995.28;;;21.17
63297;BMP280;49419;51.716;-4.948;2022-08-03T08:03:03;100980.50;;;21.16
63297;BMP280;49419;51.716;-4.948;2022-08-03T08:05:30;100980.47;;;21.22
63297;BMP280;49419;51.716;-4.948;2022-08-03T08:07:55;100997.91;;;21.37
63297;BMP280;49419;51.716;-4.948;2022-08-03T08:10:22;100991.78;;;21.47
63297;BMP280;49419;51.716;-4.948;2022-08-03T08:12:51;101000.47;;;21.57
63297;BMP280;49419;51.716;-4.948;2022-08-03T08:15:16;101008.28;;;21.62
63297;BMP280;49419;51.716;-4.948;2022-08-03T08:17:47;101000.47;;;21.60
63297;BMP280;49419;51.716;-4.948;2022-08-03T08:20:20;100998.72;;;21.61
63297;BMP280;49419;51.716;-4.948;2022-08-03T08:22:54;101006.56;;;21.57
63297;BMP280;49419;51.716;-4.948;2022-08-03T08:25:24;101004.84;;;21.49
63297;BMP280;49419;51.716;-4.948;2022-08-03T08:27:50;100996.13;;;21.41
63297;BMP280;49419;51.716;-4.948;2022-08-03T08:30:18;101011.81;;;21.42
63297;BMP280;49419;51.716;-4.948;2022-08-03T08:32:44;101010.97;;;21.42
63297;BMP280;49419;51.716;-4.948;2022-08-03T08:35:14;101005.72;;;21.42
63297;BMP280;49419;51.716;-4.948;2022-08-03T08:37:49;101010.06;;;21.47
63297;BMP280;49419;51.716;-4.948;2022-08-03T08:40:23;101016.16;;;21.52
63297;BMP280;49419;51.716;-4.948;2022-08-03T08:43:06;101006.59;;;21.51
63297;BMP280;49419;51.716;-4.948;2022-08-03T08:49:15;101022.22;;;21.63
63297;BMP280;49419;51.716;-4.948;2022-08-03T08:58:59;101013.53;;;21.55
63297;BMP280;49419;51.716;-4.948;2022-08-03T09:01:27;101020.50;;;21.53
63297;BMP280;49419;51.716;-4.948;2022-08-03T09:04:09;101009.19;;;21.51
63297;BMP280;49419;51.716;-4.948;2022-08-03T09:07:00;101022.22;;;21.63
63297;BMP280;49419;51.716;-4.948;2022-08-03T09:10:00;101020.47;;;21.71
63297;BMP280;49419;51.716;-4.948;2022-08-03T09:13:01;101018.72;;;21.73
63297;BMP280;49419;51.716;-4.948;2022-08-03T09:15:35;101016.09;;;21.73
63297;BMP280;49419;51.716;-4.948;2022-08-03T09:18:08;101012.59;;;21.77
63297;BMP280;49419;51.716;-4.948;2022-08-03T09:20:51;101000.41;;;21.79
63297;BMP280;49419;51.716;-4.948;2022-08-03T09:27:14;101008.19;;;21.93
63297;BMP280;49419;51.716;-4.948;2022-08-03T09:34:52;101008.16;;;22.11
63297;BMP280;49419;51.716;-4.948;2022-08-03T09:37:26;101011.63;;;22.13
63297;BMP280;49419;51.716;-4.948;2022-08-03T09:39:58;101022.09;;;22.13
63297;BMP280;49419;51.716;-4.948;2022-08-03T09:50:53;101010.72;;;22.17
63297;BMP280;49419;51.716;-4.948;2022-08-03T09:53:46;101020.28;;;22.24
63297;BMP280;49419;51.716;-4.948;2022-08-03T09:56:15;101033.38;;;22.21
63297;BMP280;49419;51.716;-4.948;2022-08-03T09:58:56;101030.72;;;22.27
63297;BMP280;49419;51.716;-4.948;2022-08-03T10:01:37;101017.66;;;22.30
63297;BMP280;49419;51.716;-4.948;2022-08-03T10:04:15;101018.50;;;22.32
63297;BMP280;49419;51.716;-4.948;2022-08-03T10:06:45;101020.19;;;22.42
63297;BMP280;49419;51.716;-4.948;2022-08-03T10:09:14;101028.88;;;22.47
63297;BMP280;49419;51.716;-4.948;2022-08-03T10:11:43;101031.50;;;22.45
63297;BMP280;49419;51.716;-4.948;2022-08-03T10:14:28;101032.41;;;22.34
63297;BMP280;49419;51.716;-4.948;2022-08-03T10:17:06;101021.19;;;22.19
63297;BMP280;49419;51.716;-4.948;2022-08-03T10:19:45;101032.53;;;22.10
63297;BMP280;49419;51.716;-4.948;2022-08-03T10:22:22;101030.78;;;22.06
63297;BMP280;49419;51.716;-4.948;2022-08-03T10:27:23;101034.28;;;22.10
63297;BMP280;49419;51.716;-4.948;2022-08-03T10:30:01;101038.59;;;22.23
63297;BMP280;49419;51.716;-4.948;2022-08-03T10:32:51;101017.66;;;22.30
63297;BMP280;49419;51.716;-4.948;2022-08-03T10:38:48;101030.53;;;22.59
63297;BMP280;49419;51.716;-4.948;2022-08-03T10:41:25;101040.03;;;22.72
63297;BMP280;49419;51.716;-4.948;2022-08-03T10:44:20;101027.75;;;22.88
63297;BMP280;49419;51.716;-4.948;2022-08-03T10:47:16;101032.06;;;22.93
63297;BMP280;49419;51.716;-4.948;2022-08-03T10:50:09;101017.25;;;22.96
63297;BMP280;49419;51.716;-4.948;2022-08-03T10:53:01;101021.50;;;23.05
63297;BMP280;49419;51.716;-4.948;2022-08-03T10:56:00;101030.22;;;23.05
63297;BMP280;49419;51.716;-4.948;2022-08-03T10:59:10;101028.47;;;23.09
63297;BMP280;49419;51.716;-4.948;2022-08-03T12:03:14;101049.03;;;22.26
63297;BMP280;49419;51.716;-4.948;2022-08-03T12:05:52;101035.06;;;22.28
63297;BMP280;49419;51.716;-4.948;2022-08-03T13:12:27;101077.41;;;22.98
63297;BMP280;49419;51.716;-4.948;2022-08-03T13:14:56;101082.63;;;22.98
63297;BMP280;49419;51.716;-4.948;2022-08-03T13:33:13;101076.69;;;22.65
63297;BMP280;49419;51.716;-4.948;2022-08-03T13:35:58;101068.84;;;22.66
63297;BMP280;49419;51.716;-4.948;2022-08-03T13:46:44;101081.06;;;22.70
63297;BMP280;49419;51.716;-4.948;2022-08-03T14:24:10;101053.72;;;25.27
63297;BMP280;49419;51.716;-4.948;2022-08-03T14:29:20;101042.56;;;25.64
63297;BMP280;49419;51.716;-4.948;2022-08-03T14:31:45;101051.06;;;25.78
63297;BMP280;49419;51.716;-4.948;2022-08-03T14:34:11;101043.25;;;26.19
63297;BMP280;49419;51.716;-4.948;2022-08-03T14:42:48;101040.34;;;29.19
63297;BMP280;49419;51.716;-4.948;2022-08-03T14:54:06;101027.38;;;32.20
63297;BMP280;49419;51.716;-4.948;2022-08-03T15:04:18;101028.47;;;33.07
63297;BMP280;49419;51.716;-4.948;2022-08-03T15:07:15;101018.59;;;33.44
63297;BMP280;49419;51.716;-4.948;2022-08-03T15:09:50;101016.16;;;32.88
63297;BMP280;49419;51.716;-4.948;2022-08-03T15:12:19;101017.59;;;31.63
63297;BMP280;49419;51.716;-4.948;2022-08-03T15:15:22;101017.47;;;30.39
63297;BMP280;49419;51.716;-4.948;2022-08-03T15:25:14;101017.22;;;28.45
63297;BMP280;49419;51.716;-4.948;2022-08-03T15:27:40;101009.69;;;27.71
63297;BMP280;49419;51.716;-4.948;2022-08-03T15:30:06;101010.16;;;27.20
63297;BMP280;49419;51.716;-4.948;2022-08-03T15:32:36;101011.56;;;27.68
63297;BMP280;49419;51.716;-4.948;2022-08-03T15:35:03;101007.78;;;27.46
63297;BMP280;49419;51.716;-4.948;2022-08-03T15:37:35;101009.34;;;27.18
63297;BMP280;49419;51.716;-4.948;2022-08-03T15:40:00;101012.25;;;27.07
63297;BMP280;49419;51.716;-4.948;2022-08-03T15:42:30;101003.06;;;26.88
63297;BMP280;49419;51.716;-4.948;2022-08-03T15:44:56;101010.22;;;26.46
63297;BMP280;49419;51.716;-4.948;2022-08-03T15:47:25;101006.56;;;26.12
63297;BMP280;49419;51.716;-4.948;2022-08-03T15:49:51;100991.28;;;25.88
63297;BMP280;49419;51.716;-4.948;2022-08-03T15:52:17;101003.88;;;25.72
63297;BMP280;49419;51.716;-4.948;2022-08-03T15:54:48;101003.28;;;25.58
63297;BMP280;49419;51.716;-4.948;2022-08-03T15:57:14;101013.91;;;25.49
63297;BMP280;49419;51.716;-4.948;2022-08-03T15:59:40;101008.09;;;25.32
63297;BMP280;49419;51.716;-4.948;2022-08-03T16:02:09;101016.22;;;25.19
63297;BMP280;49419;51.716;-4.948;2022-08-03T16:04:50;101012.72;;;25.18
63297;BMP280;49419;51.716;-4.948;2022-08-03T16:07:17;101020.34;;;25.33
63297;BMP280;49419;51.716;-4.948;2022-08-03T16:10:03;101005.72;;;25.18
63297;BMP280;49419;51.716;-4.948;2022-08-03T16:12:28;101007.75;;;25.02
63297;BMP280;49419;51.716;-4.948;2022-08-03T16:14:56;101013.22;;;24.87
63297;BMP280;49419;51.716;-4.948;2022-08-03T16:17:23;101010.69;;;24.80
63297;BMP280;49419;51.716;-4.948;2022-08-03T16:19:52;101019.41;;;24.82
63297;BMP280;49419;51.716;-4.948;2022-08-03T16:22:19;101013.72;;;25.62
63297;BMP280;49419;51.716;-4.948;2022-08-03T16:24:45;101008.59;;;27.12
63297;BMP280;49419;51.716;-4.948;2022-08-03T16:27:15;100992.25;;;28.83
63297;BMP280;49419;51.716;-4.948;2022-08-03T16:29:40;100994.97;;;29.82
63297;BMP280;49419;51.716;-4.948;2022-08-03T16:32:05;100994.25;;;30.89
63297;BMP280;49419;51.716;-4.948;2022-08-03T16:34:43;100989.16;;;31.86
63297;BMP280;49419;51.716;-4.948;2022-08-03T16:37:29;100994.88;;;31.38
63297;BMP280;49419;51.716;-4.948;2022-08-03T16:39:54;100993.47;;;30.43
63297;BMP280;49419;51.716;-4.948;2022-08-03T16:42:23;100996.19;;;29.23
63297;BMP280;49419;51.716;-4.948;2022-08-03T16:45:13;101010.56;;;28.03
63297;BMP280;49419;51.716;-4.948;2022-08-03T16:47:47;101017.50;;;27.08
63297;BMP280;49419;51.716;-4.948;2022-08-03T16:50:27;101006.34;;;26.24
63297;BMP280;49419;51.716;-4.948;2022-08-03T16:52:57;101014.25;;;25.78
63297;BMP280;49419;51.716;-4.948;2022-08-03T16:55:55;101015.19;;;25.27
63297;BMP280;49419;51.716;-4.948;2022-08-03T16:58:29;101012.25;;;24.94
63297;BMP280;49419;51.716;-4.948;2022-08-03T17:01:13;101025.91;;;24.59
63297;BMP280;49419;51.716;-4.948;2022-08-03T17:04:07;101035.94;;;24.29
63297;BMP280;49419;51.716;-4.948;2022-08-03T17:06:59;101031.81;;;24.07
63297;BMP280;49419;51.716;-4.948;2022-08-03T17:09:50;101020.53;;;24.02
63297;BMP280;49419;51.716;-4.948;2022-08-03T17:12:16;101024.16;;;23.91
63297;BMP280;49419;51.716;-4.948;2022-08-03T17:15:00;101040.88;;;23.81
63297;BMP280;49419;51.716;-4.948;2022-08-03T17:17:43;101032.16;;;23.81
63297;BMP280;49419;51.716;-4.948;2022-08-03T17:20:16;101024.88;;;24.05
63297;BMP280;49419;51.716;-4.948;2022-08-03T17:23:02;101015.94;;;24.80
63297;BMP280;49419;51.716;-4.948;2022-08-03T17:25:56;101007.59;;;25.60
63297;BMP280;49419;51.716;-4.948;2022-08-03T17:31:50;101003.19;;;28.14
63297;BMP280;49419;51.716;-4.948;2022-08-03T17:34:51;100999.00;;;29.18
63297;BMP280;49419;51.716;-4.948;2022-08-03T17:37:35;100990.44;;;29.84
63297;BMP280;49419;51.716;-4.948;2022-08-03T17:40:02;100984.41;;;30.72
63297;BMP280;49419;51.716;-4.948;2022-08-03T17:42:38;100977.84;;;32.01
63297;BMP280;49419;51.716;-4.948;2022-08-03T17:45:08;100991.13;;;32.57
63297;BMP280;49419;51.716;-4.948;2022-08-03T17:47:47;100985.31;;;33.03
63297;BMP280;49419;51.716;-4.948;2022-08-03T17:50:40;100991.28;;;33.24
63297;BMP280;49419;51.716;-4.948;2022-08-03T17:53:33;100987.19;;;32.64
63297;BMP280;49419;51.716;-4.948;2022-08-03T18:07:12;100969.44;;;33.68
63297;BMP280;49419;51.716;-4.948;2022-08-03T18:10:09;100959.31;;;33.42
63297;BMP280;49419;51.716;-4.948;2022-08-03T18:12:58;100979.69;;;33.08
63297;BMP280;49419;51.716;-4.948;2022-08-03T18:16:21;100984.63;;;31.69
63297;BMP280;49419;51.716;-4.948;2022-08-03T18:18:53;100989.66;;;29.82
63297;BMP280;49419;51.716;-4.948;2022-08-03T18:21:23;100986.06;;;28.27
63297;BMP280;49419;51.716;-4.948;2022-08-03T18:24:11;101012.72;;;26.89
63297;BMP280;49419;51.716;-4.948;2022-08-03T18:26:44;100999.56;;;25.69
63297;BMP280;49419;51.716;-4.948;2022-08-03T18:29:27;101000.13;;;24.85
63297;BMP280;49419;51.716;-4.948;2022-08-03T18:32:07;101011.50;;;24.27
63297;BMP280;49419;51.716;-4.948;2022-08-03T18:34:55;101014.00;;;23.63
63297;BMP280;49419;51.716;-4.948;2022-08-03T18:37:34;101022.16;;;23.29
63297;BMP280;49419;51.716;-4.948;2022-08-03T18:40:18;101021.69;;;22.78
63297;BMP280;49419;51.716;-4.948;2022-08-03T18:42:52;101018.41;;;22.47
63297;BMP280;49419;51.716;-4.948;2022-08-03T18:45:26;101023.78;;;22.23
63297;BMP280;49419;51.716;-4.948;2022-08-03T18:48:17;101029.91;;;22.10
63297;BMP280;49419;51.716;-4.948;2022-08-03T18:51:11;101033.47;;;21.90
63297;BMP280;49419;51.716;-4.948;2022-08-03T19:15:29;101044.00;;;21.07
63297;BMP280;49419;51.716;-4.948;2022-08-03T19:37:56;101077.81;;;20.57